Time;durP1;ratioP1;P1;durP2;ratioP2;P2;SDS_P1;SDS_P2;PMS_P1;PMS_P2;Temp;Humidity;BMP_temperature;BMP_pressure;BME280_temperature;BME280_humidity;BME280_pressure;Samples;Min_cycle;Max_cycle;Signal;HPM_P1;HPM_P2
2023/01/17 00:01:29;;;;;;;9.52;5.18;;;;;;;7.79;94.98;96038.69;5016177;28;20034;-85
2023/01/17 00:12:07;;;;;;;5.68;2.97;;;;;;;7.68;96.58;96025.34;5018820;28;20035;-84
2023/01/17 00:14:33;;;;;;;7.05;3.88;;;;;;;7.68;95.97;96009.38;5016203;28;20108;-84
2023/01/17 00:17:00;;;;;;;13.70;6.32;;;;;;;7.69;96.52;96011.06;5015990;28;20034;-82
2023/01/17 01:35:50;;;;;;;8.30;4.72;;;;;;;8.14;99.02;96025.34;5015247;28;20037;-84
2023/01/17 01:38:17;;;;;;;4.97;3.00;;;;;;;8.11;99.40;96028.25;5014164;28;20029;-84
2023/01/17 01:40:53;;;;;;;9.32;4.35;;;;;;;8.11;99.54;96031.78;4998145;28;20112;-82
2023/01/17 01:43:36;;;;;;;8.25;4.50;;;;;;;8.12;99.84;96017.47;4997854;28;20029;-82
2023/01/17 01:46:02;;;;;;;9.70;5.22;;;;;;;8.00;100.00;96015.75;5013916;28;20508;-82
2023/01/17 01:48:34;;;;;;;7.05;3.92;;;;;;;8.17;98.90;96012.66;4997219;28;20038;-82
2023/01/17 01:51:06;;;;;;;6.75;3.97;;;;;;;8.10;100.00;95987.47;4997564;28;20414;-83
2023/01/17 01:53:35;;;;;;;6.40;3.90;;;;;;;8.05;100.00;95994.97;5014239;28;20026;-83
2023/01/17 01:56:01;;;;;;;5.88;3.15;;;;;;;8.05;100.00;96002.09;4997569;28;20033;-83
2023/01/17 01:58:31;;;;;;;5.47;2.95;;;;;;;7.99;100.00;96000.75;4997658;28;20026;-84
2023/01/17 02:00:57;;;;;;;11.07;4.50;;;;;;;7.97;100.00;95968.06;5014151;28;20021;-83
2023/01/17 02:03:26;;;;;;;7.72;3.50;;;;;;;8.04;100.00;95979.94;5013767;28;20032;-83
2023/01/17 02:05:52;;;;;;;4.60;2.53;;;;;;;8.16;100.00;95967.50;4997434;28;20068;-82
2023/01/17 02:08:19;;;;;;;6.63;3.40;;;;;;;8.18;100.00;95962.91;5013301;28;20056;-84
2023/01/17 02:10:45;;;;;;;8.82;4.82;;;;;;;8.17;100.00;95954.09;4997227;28;20116;-84
2023/01/17 02:13:12;;;;;;;9.48;4.63;;;;;;;8.15;100.00;95945.34;5013604;28;20487;-83
2023/01/17 02:15:37;;;;;;;7.50;3.28;;;;;;;8.19;100.00;95933.50;5007248;28;20156;-84
2023/01/17 02:18:24;;;;;;;8.38;4.85;;;;;;;8.34;100.00;95950.09;5013882;28;20089;-83
2023/01/17 02:20:57;;;;;;;7.82;4.32;;;;;;;8.40;100.00;95944.28;5013151;28;20504;-83
2023/01/17 02:23:26;;;;;;;7.75;4.13;;;;;;;8.49;98.48;95942.75;4997473;28;20455;-85
2023/01/17 02:26:30;;;;;;;7.05;4.20;;;;;;;8.62;99.05;95956.75;5013558;28;20068;-82
2023/01/17 02:29:38;;;;;;;11.50;3.97;;;;;;;8.67;96.78;95946.59;5008867;28;20029;-82
2023/01/17 02:32:13;;;;;;;9.27;3.67;;;;;;;8.82;96.27;95960.50;5027954;28;20401;-83
2023/01/17 02:35:00;;;;;;;6.05;3.67;;;;;;;8.81;95.96;95959.66;4997206;28;20036;-83
2023/01/17 02:37:55;;;;;;;5.40;2.78;;;;;;;8.75;97.81;95954.81;4996636;28;20041;-83
2023/01/17 02:40:46;;;;;;;7.30;3.72;;;;;;;8.64;98.39;95946.84;5002833;28;20041;-82
2023/01/17 02:43:14;;;;;;;6.55;3.83;;;;;;;8.56;98.26;95927.94;4997201;28;20025;-83
2023/01/17 02:45:39;;;;;;;7.65;3.70;;;;;;;8.59;98.67;95944.53;4997454;28;20084;-83
2023/01/17 02:48:07;;;;;;;7.68;3.90;;;;;;;8.54;98.91;95929.88;5013716;28;20025;-82
2023/01/17 02:50:54;;;;;;;8.23;3.90;;;;;;;8.58;98.83;95929.50;5012876;28;20034;-83
2023/01/17 02:53:41;;;;;;;6.68;3.47;;;;;;;8.68;98.16;95906.50;5013068;28;20044;-81
2023/01/17 02:56:35;;;;;;;8.93;4.22;;;;;;;8.66;98.37;95907.59;5013399;28;20039;-84
2023/01/17 02:59:04;;;;;;;6.95;3.50;;;;;;;8.67;98.54;95928.78;5008756;28;20018;-84
2023/01/17 03:01:59;;;;;;;6.75;3.53;;;;;;;8.77;97.41;95926.22;5001555;28;20029;-83
2023/01/17 03:04:33;;;;;;;5.32;3.42;;;;;;;8.73;97.03;95914.13;5001369;28;20037;-82
2023/01/17 03:07:06;;;;;;;7.07;3.78;;;;;;;8.84;96.74;95932.75;5001690;28;20036;-82
2023/01/17 03:09:32;;;;;;;7.85;3.53;;;;;;;8.81;97.24;95895.69;5018039;28;20067;-81
2023/01/17 03:11:59;;;;;;;8.10;3.63;;;;;;;8.74;97.73;95909.66;5017671;28;20053;-82
2023/01/17 03:14:24;;;;;;;5.88;3.17;;;;;;;8.75;97.97;95898.00;5001401;28;20029;-82
2023/01/17 03:16:50;;;;;;;7.55;4.07;;;;;;;8.84;97.60;95890.09;5001236;28;20029;-82
2023/01/17 03:19:15;;;;;;;5.70;3.20;;;;;;;8.83;97.83;95896.41;5035817;28;20567;-82
2023/01/17 03:21:41;;;;;;;6.50;3.33;;;;;;;8.85;97.64;95904.28;5017966;28;20029;-83
2023/01/17 03:24:07;;;;;;;5.50;2.70;;;;;;;8.89;97.05;95871.91;5001081;28;20159;-83
2023/01/17 03:26:32;;;;;;;8.07;3.72;;;;;;;8.90;96.87;95873.59;5017727;28;20030;-80
2023/01/17 03:28:58;;;;;;;7.05;3.17;;;;;;;8.90;97.66;95856.75;5035063;28;20029;-83
2023/01/17 03:31:24;;;;;;;6.95;3.65;;;;;;;8.84;98.38;95847.44;5017679;28;20025;-82
2023/01/17 03:33:49;;;;;;;5.18;3.08;;;;;;;8.93;98.22;95876.03;5001020;28;20463;-83
2023/01/17 03:36:15;;;;;;;11.63;4.40;;;;;;;8.89;97.79;95849.75;5001325;28;20069;-83
2023/01/17 03:38:41;;;;;;;4.18;2.72;;;;;;;8.95;97.05;95855.41;5035269;28;20032;-84
2023/01/17 03:41:07;;;;;;;4.22;2.75;;;;;;;9.01;96.61;95854.06;5017325;28;20115;-82
2023/01/17 03:43:32;;;;;;;6.63;3.90;;;;;;;9.02;96.11;95829.06;5000296;28;20409;-83
2023/01/17 03:46:06;;;;;;;4.88;2.83;;;;;;;9.05;95.95;95829.66;5000966;28;20040;-82
2023/01/17 03:48:31;;;;;;;8.15;3.97;;;;;;;9.12;95.66;95836.19;5000677;28;20570;-83
2023/01/17 03:50:57;;;;;;;6.22;3.20;;;;;;;9.16;95.30;95839.44;5017108;28;20045;-84
2023/01/17 03:53:23;;;;;;;6.28;3.63;;;;;;;9.12;95.24;95840.69;5000371;28;20099;-83
2023/01/17 03:55:48;;;;;;;5.93;2.70;;;;;;;9.23;94.89;95869.94;5017547;28;20037;-83
2023/01/17 03:58:15;;;;;;;5.90;3.50;;;;;;;9.24;94.82;95863.66;5000689;28;20501;-83
2023/01/17 04:00:41;;;;;;;8.95;3.75;;;;;;;9.25;95.42;95868.03;5000233;28;20558;-83
2023/01/17 04:03:06;;;;;;;9.10;3.65;;;;;;;9.24;95.46;95877.00;5016961;28;20014;-83
2023/01/17 04:05:32;;;;;;;7.15;3.28;;;;;;;9.13;95.81;95859.22;5016384;28;20029;-82
2023/01/17 04:07:57;;;;;;;5.38;3.05;;;;;;;9.23;95.72;95867.28;5000421;28;20201;-83
2023/01/17 04:10:23;;;;;;;6.15;2.55;;;;;;;9.26;95.53;95854.53;5016454;28;20530;-81
2023/01/17 04:12:48;;;;;;;3.17;1.88;;;;;;;9.23;95.59;95849.47;5000316;28;20021;-82
2023/01/17 04:15:14;;;;;;;6.18;2.17;;;;;;;9.30;95.42;95873.81;5016411;28;20516;-83
2023/01/17 04:17:40;;;;;;;3.30;2.60;;;;;;;9.39;95.46;95875.69;5000106;28;20021;-82
2023/01/17 04:20:06;;;;;;;7.22;3.65;;;;;;;9.42;95.40;95885.25;5000505;28;20412;-82
2023/01/17 04:22:32;;;;;;;5.13;2.80;;;;;;;9.37;95.23;95871.47;5016324;28;20080;-82
2023/01/17 04:24:58;;;;;;;5.00;3.03;;;;;;;9.36;95.63;95875.97;5016434;28;20048;-82
2023/01/17 04:27:23;;;;;;;5.03;2.83;;;;;;;9.41;95.45;95860.44;5016570;28;20052;-83
2023/01/17 04:29:49;;;;;;;6.43;3.25;;;;;;;9.49;95.33;95891.78;5000179;28;20037;-83
2023/01/17 04:32:14;;;;;;;5.80;3.13;;;;;;;9.55;94.84;95872.59;4999964;28;20037;-83
2023/01/17 04:34:40;;;;;;;4.40;2.72;;;;;;;9.55;94.82;95860.09;5016649;28;20029;-83
2023/01/17 04:37:06;;;;;;;7.78;4.15;;;;;;;9.57;94.25;95863.47;5016170;28;20029;-82
2023/01/17 04:39:31;;;;;;;12.27;5.68;;;;;;;9.59;94.29;95874.03;5016112;28;20029;-84
2023/01/17 04:41:57;;;;;;;10.40;4.75;;;;;;;9.58;94.74;95889.19;5016134;28;20032;-82
2023/01/17 04:44:22;;;;;;;8.43;4.30;;;;;;;9.57;95.34;95903.50;4999445;28;20033;-81
2023/01/17 04:46:48;;;;;;;12.20;4.38;;;;;;;9.59;95.13;95887.38;4999125;28;20106;-83
2023/01/17 04:49:14;;;;;;;11.82;4.50;;;;;;;9.58;95.17;95880.34;5016004;28;20060;-83
2023/01/17 04:51:39;;;;;;;7.57;4.57;;;;;;;9.61;95.52;95910.28;5015740;28;20060;-83
2023/01/17 04:54:05;;;;;;;4.63;3.05;;;;;;;9.68;95.46;95907.94;4999677;28;20523;-83
2023/01/17 04:56:30;;;;;;;5.78;3.20;;;;;;;9.67;94.91;95900.91;4999411;28;20091;-82
2023/01/17 04:58:57;;;;;;;7.28;3.17;;;;;;;9.77;94.30;95917.84;4999233;28;20030;-82
2023/01/17 05:01:22;;;;;;;7.70;4.20;;;;;;;9.79;94.34;95913.22;5015696;28;20575;-83
2023/01/17 05:03:48;;;;;;;12.65;3.53;;;;;;;9.81;93.65;95906.75;5015469;28;20053;-83
2023/01/17 05:06:13;;;;;;;10.00;4.18;;;;;;;9.87;93.89;95931.28;5015523;28;20079;-83
2023/01/17 05:08:39;;;;;;;7.45;3.92;;;;;;;9.91;93.53;95936.19;5015424;28;20026;-81
2023/01/17 05:11:05;;;;;;;8.27;3.92;;;;;;;9.85;94.04;95947.41;5015569;28;20025;-82
2023/01/17 05:13:30;;;;;;;8.57;4.05;;;;;;;9.85;93.65;95942.06;4999254;28;20026;-82
2023/01/17 05:15:57;;;;;;;10.45;5.03;;;;;;;9.81;94.91;95949.47;5015356;28;20481;-83
2023/01/17 05:18:22;;;;;;;8.25;4.15;;;;;;;9.80;94.65;95971.84;4999225;28;20088;-83
2023/01/17 05:20:48;;;;;;;12.07;6.00;;;;;;;9.73;95.15;95967.97;5015235;28;20033;-83
2023/01/17 05:23:13;;;;;;;5.65;3.63;;;;;;;9.74;95.12;95974.19;4998525;28;20025;-84
2023/01/17 05:25:42;;;;;;;23.40;9.70;;;;;;;9.68;95.30;95983.56;4998983;28;20038;-83
2023/01/17 05:28:10;;;;;;;14.95;6.15;;;;;;;9.77;96.08;95980.09;5000186;28;20030;-89
2023/01/17 05:30:35;;;;;;;8.90;3.88;;;;;;;9.82;94.79;95974.38;4997745;28;20045;-84
2023/01/17 05:33:01;;;;;;;5.97;3.35;;;;;;;9.86;93.85;95957.13;4996167;28;20026;-86
2023/01/17 05:35:28;;;;;;;4.28;2.72;;;;;;;9.96;93.26;95970.53;5014528;28;20103;-85
2023/01/17 05:37:54;;;;;;;5.53;2.58;;;;;;;10.01;92.70;95965.66;5014894;28;20025;-85
2023/01/17 05:40:22;;;;;;;4.63;2.72;;;;;;;9.91;92.84;95941.53;5013657;28;20029;-83
2023/01/17 05:42:50;;;;;;;10.05;3.90;;;;;;;9.86;93.69;95970.47;4998991;28;20061;-91
2023/01/17 05:45:17;;;;;;;6.25;3.83;;;;;;;9.79;94.03;95953.25;4998335;28;20104;-81
2023/01/17 05:47:43;;;;;;;13.80;5.03;;;;;;;9.80;94.05;95955.81;5015260;28;20555;-85
2023/01/17 05:50:11;;;;;;;10.07;4.50;;;;;;;9.76;94.46;95958.88;5015341;28;20046;-84
2023/01/17 05:52:36;;;;;;;9.15;4.15;;;;;;;9.74;94.58;95958.16;5014673;28;20087;-84
2023/01/17 05:55:02;;;;;;;9.82;4.53;;;;;;;9.76;94.60;95956.19;4997559;28;20029;-83
2023/01/17 05:57:28;;;;;;;6.10;3.08;;;;;;;9.72;94.57;95941.44;4997946;28;20022;-84
2023/01/17 05:59:53;;;;;;;9.20;2.90;;;;;;;9.88;93.40;95965.84;4997254;28;20025;-83
2023/01/17 06:02:19;;;;;;;7.88;4.10;;;;;;;9.99;92.23;95957.78;5013802;28;20176;-83
2023/01/17 06:04:44;;;;;;;8.82;4.70;;;;;;;9.97;92.59;95980.22;5014012;28;20095;-83
2023/01/17 06:07:10;;;;;;;6.95;4.00;;;;;;;10.03;91.96;95988.56;5031207;28;20025;-83
2023/01/17 06:09:35;;;;;;;10.23;3.90;;;;;;;10.09;91.62;96009.41;5014069;28;20037;-83
2023/01/17 06:12:01;;;;;;;6.03;3.00;;;;;;;10.09;91.53;95976.53;4997822;28;20500;-84
2023/01/17 06:14:26;;;;;;;6.07;3.20;;;;;;;10.12;90.64;95985.13;5014116;28;20036;-84
2023/01/17 06:16:52;;;;;;;20.38;7.93;;;;;;;10.10;90.39;95975.56;5013911;28;20025;-83
2023/01/17 06:19:17;;;;;;;12.07;5.50;;;;;;;10.33;89.23;95959.28;5013543;28;20025;-84
2023/01/17 06:21:43;;;;;;;11.18;4.80;;;;;;;10.42;88.63;95980.84;4997744;28;20466;-84
2023/01/17 06:24:09;;;;;;;6.20;2.30;;;;;;;10.44;88.18;95989.56;4997283;28;20075;-84
2023/01/17 06:26:34;;;;;;;8.40;3.78;;;;;;;10.43;88.31;95961.16;5031585;28;20030;-82
2023/01/17 06:29:00;;;;;;;6.70;4.07;;;;;;;10.37;88.26;95964.38;5013236;28;20052;-83
2023/01/17 06:31:26;;;;;;;12.20;3.78;;;;;;;10.37;88.59;95964.38;4997387;28;20032;-84
2023/01/17 06:33:51;;;;;;;6.72;3.83;;;;;;;10.26;89.61;95973.31;4996767;28;20029;-83
2023/01/17 06:36:17;;;;;;;6.43;2.75;;;;;;;10.16;89.74;95956.34;4997131;28;20091;-83
2023/01/17 06:38:42;;;;;;;4.50;2.50;;;;;;;10.26;89.19;95974.16;4997421;28;20056;-84
2023/01/17 06:41:08;;;;;;;5.57;3.00;;;;;;;10.21;89.45;95980.88;5013241;28;20173;-84
2023/01/17 06:43:34;;;;;;;6.32;3.83;;;;;;;10.22;89.79;95996.75;4997254;28;20115;-85
2023/01/17 06:46:00;;;;;;;6.60;3.67;;;;;;;10.20;90.00;95997.88;5013733;28;20033;-84
2023/01/17 06:48:26;;;;;;;6.65;3.90;;;;;;;10.21;90.14;96000.41;4996940;28;20068;-84
2023/01/17 06:50:51;;;;;;;7.97;3.75;;;;;;;10.66;87.60;96002.78;5013326;28;20055;-82
2023/01/17 06:53:17;;;;;;;7.65;3.80;;;;;;;10.83;85.72;96011.00;5013297;28;20095;-83
2023/01/17 06:55:42;;;;;;;6.20;3.78;;;;;;;10.89;84.96;96023.84;5013291;28;20032;-78
2023/01/17 06:58:09;;;;;;;7.65;4.00;;;;;;;11.14;84.23;96045.75;5013402;28;20017;-79
2023/01/17 07:00:35;;;;;;;11.07;5.25;;;;;;;11.94;79.71;96041.19;5012551;28;20090;-78
2023/01/17 07:03:00;;;;;;;7.40;3.55;;;;;;;12.20;75.56;96015.50;4996935;28;20396;-73
2023/01/17 07:05:27;;;;;;;8.07;3.03;;;;;;;11.48;79.53;96016.84;5018220;28;20385;-76
2023/01/17 07:07:53;;;;;;;8.02;3.83;;;;;;;11.13;82.33;96003.94;5021397;28;20033;-77
2023/01/17 07:10:19;;;;;;;4.57;2.92;;;;;;;11.06;83.80;96008.16;5019682;28;20560;-76
2023/01/17 07:12:45;;;;;;;7.72;4.68;;;;;;;11.18;83.31;96004.38;5019961;28;20108;-77
2023/01/17 07:15:11;;;;;;;5.90;3.05;;;;;;;11.29;82.45;95999.75;5014905;28;20060;-77
2023/01/17 07:17:37;;;;;;;7.88;3.60;;;;;;;11.44;81.73;95995.69;5013866;28;20519;-77
2023/01/17 07:20:03;;;;;;;3.85;2.47;;;;;;;11.48;80.53;95995.41;4998121;28;20021;-76
2023/01/17 07:22:28;;;;;;;6.80;3.10;;;;;;;11.59;79.87;95987.28;5012819;28;20035;-75
2023/01/17 07:24:57;;;;;;;3.35;2.15;;;;;;;11.82;78.80;95988.72;4996620;28;20021;-79
2023/01/17 07:27:29;;;;;;;7.00;3.20;;;;;;;12.15;76.97;95977.56;5032303;28;20025;-76
2023/01/17 07:29:54;;;;;;;5.40;2.88;;;;;;;12.82;72.37;95984.59;5019316;28;20025;-78
2023/01/17 07:32:20;;;;;;;5.55;3.17;;;;;;;13.63;68.01;95991.81;5017061;28;20482;-77
2023/01/17 07:35:27;;;;;;;8.60;3.42;;;;;;;14.08;63.96;95962.19;5028183;28;20511;-81
2023/01/17 07:37:48;;;;;;;5.22;2.88;;;;;;;14.64;62.28;95961.81;5019068;28;20033;-78
2023/01/17 07:40:16;;;;;;;3.15;2.10;;;;;;;14.86;60.37;95957.72;5028406;28;20112;-78
2023/01/17 07:42:42;;;;;;;5.03;3.08;;;;;;;15.47;60.38;95966.41;4993610;28;20124;-79
2023/01/17 07:45:33;;;;;;;3.17;2.10;;;;;;;15.44;57.51;95955.91;4994045;28;20021;-80
2023/01/17 07:47:59;;;;;;;5.53;3.00;;;;;;;15.44;59.23;95977.47;4997221;28;20046;-77
2023/01/17 07:50:25;;;;;;;3.67;2.13;;;;;;;15.20;57.58;95961.22;4993405;28;20072;-79
2023/01/17 07:52:50;;;;;;;5.55;3.35;;;;;;;15.17;59.53;95975.03;5004488;28;20480;-78
2023/01/17 07:55:16;;;;;;;3.65;2.30;;;;;;;14.73;58.87;95951.94;4993640;28;20067;-77
2023/01/17 07:57:42;;;;;;;5.30;3.38;;;;;;;14.96;59.58;95961.13;5013296;28;20026;-80
2023/01/17 08:00:08;;;;;;;3.80;2.47;;;;;;;14.77;59.06;95954.13;5008236;28;20456;-80
2023/01/17 08:02:33;;;;;;;5.28;2.95;;;;;;;15.11;58.16;95971.13;4988801;28;20033;-76
2023/01/17 08:04:59;;;;;;;4.38;3.17;;;;;;;15.53;57.60;95987.34;5005682;28;20103;-76
2023/01/17 08:07:24;;;;;;;2.83;1.90;;;;;;;15.37;56.36;95973.78;5012916;28;20456;-76
2023/01/17 08:09:50;;;;;;;5.13;2.70;;;;;;;15.12;57.78;95980.91;5009450;28;20033;-77
2023/01/17 08:12:42;;;;;;;4.13;2.35;;;;;;;15.05;57.27;95974.47;5026431;28;20039;-79
2023/01/17 08:15:08;;;;;;;4.10;2.40;;;;;;;15.33;56.71;95993.09;4998598;28;20045;-78
2023/01/17 08:17:33;;;;;;;6.55;3.50;;;;;;;15.66;56.07;95998.47;5010285;28;20029;-80
2023/01/17 08:20:02;;;;;;;3.92;2.60;;;;;;;15.83;55.19;95982.34;4991692;28;20120;-83
2023/01/17 08:22:30;;;;;;;7.10;2.45;;;;;;;15.95;54.53;95979.16;4992064;28;20067;-79
2023/01/17 08:24:56;;;;;;;5.93;2.92;;;;;;;16.25;54.09;95983.91;5012284;28;20421;-81
2023/01/17 08:27:22;;;;;;;4.57;2.83;;;;;;;16.24;54.02;95992.19;4989018;28;20046;-81
2023/01/17 08:29:48;;;;;;;4.47;2.55;;;;;;;16.47;53.21;95985.09;4987403;28;20026;-80
2023/01/17 08:32:14;;;;;;;3.10;2.10;;;;;;;16.30;53.01;95978.03;4987475;28;20404;-78
2023/01/17 08:34:52;;;;;;;3.47;2.50;;;;;;;16.33;53.06;95964.19;4977493;28;20553;-79
2023/01/17 08:37:18;;;;;;;3.20;2.22;;;;;;;16.93;51.58;95970.03;4993982;28;20091;-79
2023/01/17 08:39:43;;;;;;;3.53;2.20;;;;;;;17.50;50.14;95964.44;5002024;28;20486;-79
2023/01/17 08:42:09;;;;;;;5.15;3.00;;;;;;;18.22;48.86;95964.00;5020235;28;20478;-79
2023/01/17 08:44:34;;;;;;;3.28;2.10;;;;;;;18.62;47.28;95981.81;5004352;28;20087;-77
2023/01/17 08:47:03;;;;;;;3.70;2.35;;;;;;;18.75;46.96;95973.06;4995242;28;20092;-80
2023/01/17 08:49:29;;;;;;;7.03;2.67;;;;;;;19.41;45.52;95977.63;4995139;28;20034;-78
2023/01/17 08:51:54;;;;;;;6.40;3.35;;;;;;;20.27;44.27;95979.53;5014303;28;20052;-78
2023/01/17 08:54:40;;;;;;;5.22;3.10;;;;;;;21.04;42.48;95969.56;5015463;28;20028;-79
2023/01/17 08:57:06;;;;;;;3.10;2.00;;;;;;;21.48;40.70;95955.59;5029613;28;20100;-77
2023/01/17 08:59:31;;;;;;;3.60;2.50;;;;;;;21.61;41.26;95948.38;5014686;28;20401;-77
2023/01/17 09:01:57;;;;;;;2.67;2.22;;;;;;;21.76;40.25;95929.16;5014507;28;20032;-78
2023/01/17 09:04:23;;;;;;;4.47;2.42;;;;;;;21.74;40.19;95927.69;5015004;28;20041;-79
2023/01/17 09:06:48;;;;;;;4.90;2.45;;;;;;;21.67;39.26;95911.31;5037430;28;20017;-79
2023/01/17 09:09:17;;;;;;;4.03;2.22;;;;;;;21.64;40.24;95906.28;4995725;28;20091;-78
2023/01/17 09:11:43;;;;;;;4.78;2.85;;;;;;;21.92;39.89;95917.94;5007741;28;20021;-77
2023/01/17 09:14:11;;;;;;;4.05;2.53;;;;;;;22.22;39.11;95903.97;5022981;28;20033;-77
2023/01/17 09:16:36;;;;;;;3.00;1.88;;;;;;;21.49;39.71;95886.56;5003333;28;20060;-77
2023/01/17 09:19:02;;;;;;;2.67;1.70;;;;;;;21.24;39.89;95877.22;5024128;28;20017;-79
2023/01/17 09:21:28;;;;;;;1.98;1.60;;;;;;;21.37;39.89;95899.06;5008534;28;20035;-77
2023/01/17 09:23:54;;;;;;;3.00;1.90;;;;;;;21.71;39.28;95890.84;5040705;28;20025;-78
2023/01/17 09:26:22;;;;;;;1.55;1.38;;;;;;;22.50;38.07;95915.53;5014877;28;20026;-78
2023/01/17 09:28:48;;;;;;;3.25;1.75;;;;;;;22.63;38.21;95900.03;5033588;28;20112;-78
2023/01/17 09:31:14;;;;;;;5.40;2.42;;;;;;;23.40;36.74;95909.41;5019864;28;20077;-79
2023/01/17 09:33:41;;;;;;;7.20;2.75;;;;;;;24.18;36.04;95905.47;5024081;28;20025;-78
2023/01/17 09:36:08;;;;;;;2.15;1.52;;;;;;;24.91;34.17;95895.72;5037626;28;20110;-78
2023/01/17 09:38:33;;;;;;;8.75;1.98;;;;;;;25.59;33.17;95895.66;5037980;28;20019;-77
2023/01/17 09:41:00;;;;;;;6.00;1.80;;;;;;;24.96;33.40;95873.97;5030666;28;20160;-77
2023/01/17 09:43:39;;;;;;;3.67;2.13;;;;;;;25.31;33.47;95871.53;5012686;28;20025;-77
2023/01/17 09:46:05;;;;;;;12.10;3.42;;;;;;;26.26;32.78;95891.84;4996177;28;20021;-77
2023/01/17 09:48:35;;;;;;;3.28;1.33;;;;;;;26.56;32.08;95875.34;5012152;28;20145;-74
2023/01/17 09:51:13;;;;;;;2.25;1.98;;;;;;;26.50;31.57;95870.81;5011719;28;20511;-74
2023/01/17 09:53:40;;;;;;;3.55;2.15;;;;;;;25.96;32.13;95852.63;5012311;28;20404;-75
2023/01/17 09:56:08;;;;;;;2.28;1.38;;;;;;;26.15;31.95;95862.44;5011900;28;20535;-82
2023/01/17 09:58:49;;;;;;;2.35;1.52;;;;;;;26.88;30.80;95863.03;5011846;28;20029;-84
2023/01/17 10:01:37;;;;;;;7.57;2.38;;;;;;;25.42;32.84;95839.78;5011295;28;20505;-82
2023/01/17 10:04:21;;;;;;;3.65;2.03;;;;;;;25.28;32.82;95828.19;5011074;28;20033;-83
2023/01/17 10:07:09;;;;;;;3.88;1.55;;;;;;;25.54;32.95;95821.56;5029064;28;20030;-82
2023/01/17 10:09:46;;;;;;;1.38;1.20;;;;;;;26.12;31.58;95814.41;5011027;28;20404;-83
2023/01/17 10:12:21;;;;;;;3.67;1.85;;;;;;;27.67;29.81;95829.41;5011305;28;20109;-84
2023/01/17 10:14:53;;;;;;;2.67;1.90;;;;;;;26.93;30.19;95816.47;5006012;28;20397;-84
2023/01/17 10:17:40;;;;;;;2.65;2.00;;;;;;;26.93;30.61;95822.81;5005699;28;20089;-83
2023/01/17 10:20:32;;;;;;;3.63;1.80;;;;;;;27.69;29.45;95821.75;5007820;28;20068;-83
2023/01/17 10:23:14;;;;;;;1.38;1.13;;;;;;;27.21;29.62;95813.84;5000058;28;20033;-81
2023/01/17 10:25:46;;;;;;;11.48;6.60;;;;;;;27.55;29.64;95819.53;4994635;28;20064;-81
2023/01/17 10:28:19;;;;;;;3.13;1.90;;;;;;;27.16;30.18;95805.50;5031591;28;20383;-77
2023/01/17 10:30:48;;;;;;;5.25;2.97;;;;;;;26.07;30.89;95781.38;5011083;28;20025;-82
2023/01/17 10:33:20;;;;;;;3.30;1.30;;;;;;;23.32;33.80;95735.78;5010829;28;20469;-82
2023/01/17 10:35:55;;;;;;;4.80;1.35;;;;;;;22.15;36.51;95752.25;4994203;28;20064;-83
2023/01/17 10:38:33;;;;;;;3.90;1.85;;;;;;;22.61;36.03;95759.53;5017140;28;20032;-78
2023/01/17 10:41:04;;;;;;;4.28;2.10;;;;;;;22.48;36.03;95763.13;5002502;28;20045;-76
2023/01/17 10:43:39;;;;;;;11.60;2.20;;;;;;;22.11;36.74;95745.56;5017571;28;20072;-77
2023/01/17 10:46:04;;;;;;;12.27;3.63;;;;;;;21.19;38.58;95750.03;5016574;28;20052;-77
2023/01/17 10:48:46;;;;;;;7.38;2.72;;;;;;;21.42;37.93;95763.25;5001061;28;20120;-78
2023/01/17 10:51:25;;;;;;;2.47;1.20;;;;;;;20.43;38.33;95746.50;4996209;28;20053;-78
2023/01/17 10:54:16;;;;;;;3.40;1.50;;;;;;;19.93;39.88;95774.72;5012571;28;20093;-77
2023/01/17 10:56:41;;;;;;;18.30;6.82;;;;;;;20.26;39.65;95783.16;4996135;28;20056;-78
2023/01/17 10:59:23;;;;;;;3.83;2.10;;;;;;;20.34;39.36;95782.16;5012055;28;20048;-77
2023/01/17 11:01:48;;;;;;;2.05;1.63;;;;;;;19.18;40.90;95751.84;4988296;28;20028;-77
2023/01/17 11:04:25;;;;;;;4.70;2.50;;;;;;;18.28;43.04;95746.72;5012374;28;20034;-76
2023/01/17 11:07:13;;;;;;;2.53;1.80;;;;;;;18.24;43.54;95763.53;4996127;28;20025;-77
2023/01/17 11:09:44;;;;;;;7.47;2.28;;;;;;;18.08;43.69;95769.13;5012938;28;20045;-77
2023/01/17 11:12:28;;;;;;;3.93;2.23;;;;;;;17.94;44.38;95772.63;5030486;28;20095;-77
2023/01/17 11:15:01;;;;;;;5.78;3.22;;;;;;;17.73;45.04;95776.03;5027139;28;20276;-78
2023/01/17 11:17:28;;;;;;;4.65;2.03;;;;;;;17.36;45.69;95779.50;5011321;28;20061;-77
2023/01/17 11:20:06;;;;;;;3.22;2.33;;;;;;;17.23;45.89;95772.00;5003040;28;20096;-78
2023/01/17 11:22:32;;;;;;;5.38;1.60;;;;;;;17.15;46.44;95784.72;5013916;28;20076;-79
2023/01/17 11:24:58;;;;;;;18.27;10.10;;;;;;;17.12;46.78;95777.81;5016841;28;20076;-77
2023/01/17 11:27:57;;;;;;;11.15;6.22;;;;;;;17.21;46.82;95786.72;5018301;28;20033;-77
2023/01/17 11:30:28;;;;;;;5.53;3.42;;;;;;;17.15;47.26;95765.81;5004454;28;20417;-77
2023/01/17 11:33:02;;;;;;;4.38;2.20;;;;;;;17.28;46.98;95771.47;5018847;28;20548;-77
2023/01/17 11:35:33;;;;;;;4.57;2.58;;;;;;;17.32;46.95;95778.16;5001728;28;20029;-78
2023/01/17 11:38:01;;;;;;;2.83;2.28;;;;;;;17.26;47.06;95766.22;5018028;28;20053;-76
2023/01/17 11:40:32;;;;;;;2.65;2.08;;;;;;;17.10;47.29;95757.41;5037954;28;20040;-77
2023/01/17 11:43:17;;;;;;;3.83;2.50;;;;;;;16.84;47.90;95749.63;5019477;28;20040;-78
2023/01/17 11:45:58;;;;;;;3.35;2.42;;;;;;;16.85;48.00;95753.16;4994503;28;20029;-77
2023/01/17 11:48:24;;;;;;;4.13;2.40;;;;;;;16.99;48.11;95742.44;5000363;28;20037;-76
2023/01/17 11:50:55;;;;;;;3.22;1.63;;;;;;;17.08;47.95;95738.66;5017120;28;20049;-78
2023/01/17 11:53:26;;;;;;;5.25;2.90;;;;;;;16.83;48.50;95722.81;5013490;28;20026;-78
2023/01/17 11:56:07;;;;;;;3.45;2.33;;;;;;;16.93;48.46;95716.16;5000399;28;20029;-78
2023/01/17 11:58:35;;;;;;;12.43;5.03;;;;;;;17.15;48.02;95736.94;5016295;28;20030;-76
2023/01/17 12:01:03;;;;;;;22.08;7.25;;;;;;;17.24;48.07;95737.72;5016365;28;20100;-77
2023/01/17 12:03:58;;;;;;;12.10;4.63;;;;;;;17.56;47.27;95742.91;5013347;28;20413;-78
2023/01/17 12:06:56;;;;;;;2.65;1.73;;;;;;;17.64;46.61;95745.53;5031275;28;20040;-78
2023/01/17 12:10:03;;;;;;;10.20;4.90;;;;;;;17.88;45.85;95742.59;5013358;28;20028;-80
2023/01/17 12:16:30;;;;;;;2.58;1.60;;;;;;;18.04;45.54;95743.44;4934188;29;20036;-79
2023/01/17 12:19:31;;;;;;;4.50;1.88;;;;;;;18.54;44.53;95732.75;4919013;29;20023;-80
2023/01/17 12:22:34;;;;;;;5.05;2.53;;;;;;;19.29;42.72;95743.19;5015746;28;20091;-80
2023/01/17 12:25:14;;;;;;;3.38;1.55;;;;;;;19.93;42.12;95758.44;5026080;28;20059;-81
2023/01/17 12:27:47;;;;;;;2.42;1.80;;;;;;;21.09;40.49;95784.91;5015739;28;20057;-81
2023/01/17 12:30:40;;;;;;;11.65;6.18;;;;;;;22.35;39.02;95792.28;4996253;28;20100;-80
2023/01/17 12:33:44;;;;;;;14.68;3.58;;;;;;;22.17;38.02;95765.69;5015860;28;20539;-81
2023/01/17 12:36:16;;;;;;;5.80;2.38;;;;;;;20.10;40.92;95698.44;5026898;28;20113;-79
2023/01/17 12:38:43;;;;;;;4.38;2.53;;;;;;;19.20;43.01;95711.81;4999182;28;20034;-79
2023/01/17 12:41:30;;;;;;;2.35;1.63;;;;;;;18.06;45.46;95720.56;5012039;28;20098;-82
2023/01/17 12:43:58;;;;;;;4.57;2.00;;;;;;;17.60;46.37;95719.88;4997096;28;20037;-80
2023/01/17 12:46:32;;;;;;;7.03;3.70;;;;;;;17.39;47.09;95721.53;4995786;28;20114;-80
2023/01/17 12:49:39;;;;;;;8.63;3.95;;;;;;;17.32;46.90;95724.13;5014822;28;20038;-80
2023/01/17 12:52:37;;;;;;;6.65;3.35;;;;;;;17.34;47.15;95731.06;5001995;28;20042;-80
2023/01/17 12:55:08;;;;;;;4.22;2.80;;;;;;;17.76;46.99;95749.47;4993001;28;20417;-80
2023/01/17 12:57:38;;;;;;;7.47;4.38;;;;;;;17.57;47.32;95741.84;4995035;28;20085;-80
2023/01/17 13:00:21;;;;;;;8.10;5.97;;;;;;;17.69;46.76;95729.56;4988756;28;20030;-80
2023/01/17 13:02:50;;;;;;;7.88;4.43;;;;;;;17.86;46.77;95747.34;5014391;28;20029;-80
2023/01/17 13:05:22;;;;;;;3.65;2.58;;;;;;;17.80;46.55;95734.56;5005200;28;20482;-80
2023/01/17 13:08:09;;;;;;;7.72;3.95;;;;;;;17.76;47.01;95754.88;4988940;28;20053;-80
2023/01/17 13:10:44;;;;;;;6.55;3.53;;;;;;;17.54;47.01;95747.59;5016631;28;20112;-80
2023/01/17 13:13:21;;;;;;;17.75;8.45;;;;;;;17.10;47.90;95730.38;4986445;28;20036;-80
2023/01/17 13:15:48;;;;;;;5.40;2.70;;;;;;;16.79;48.47;95738.53;4992770;28;20049;-82
2023/01/17 13:18:21;;;;;;;6.00;3.60;;;;;;;16.72;48.85;95742.94;4976296;28;20028;-82
2023/01/17 13:21:09;;;;;;;18.33;6.32;;;;;;;16.73;48.91;95745.44;4995835;28;20026;-82